createdAt,value
2019-05-03T00:02:27.450Z,42.95
2019-05-03T00:07:31.783Z,45.88
2019-05-03T00:12:35.496Z,43.42
2019-05-03T00:17:38.955Z,47.13
2019-05-03T00:22:45.325Z,40.55
2019-05-03T00:27:52.436Z,38.05
2019-05-03T00:32:57.527Z,42.30
2019-05-03T00:38:05.303Z,36.83
2019-05-03T00:43:11.600Z,41.35
2019-05-03T00:48:15.311Z,39.67
2019-05-03T00:53:18.684Z,35.63
2019-05-03T00:58:22.527Z,34.05
2019-05-03T01:03:26.058Z,37.67
2019-05-03T01:08:29.958Z,39.45
2019-05-03T01:13:34.100Z,32.30
2019-05-03T01:18:38.738Z,35.43
2019-05-03T01:23:42.817Z,41.88
2019-05-03T01:28:46.600Z,39.60
2019-05-03T01:33:51.562Z,36.15
2019-05-03T01:38:56.294Z,33.78
2019-05-03T01:44:01.820Z,36.35
2019-05-03T01:49:19.100Z,36.37
2019-05-03T01:54:22.916Z,37.45
2019-05-03T01:59:27.483Z,36.48
2019-05-03T02:04:53.396Z,41.08
2019-05-03T02:09:57.447Z,33.78
2019-05-03T02:15:02.478Z,38.53
2019-05-03T02:20:06.931Z,35.98
2019-05-03T02:25:12.542Z,24.27
2019-05-03T02:30:16.174Z,32.00
2019-05-03T02:35:22.632Z,31.85
2019-05-03T02:40:26.356Z,35.17
2019-05-03T02:45:30.675Z,34.15
2019-05-03T02:50:36.063Z,31.60
2019-05-03T02:55:39.950Z,30.92
2019-05-03T03:00:59.784Z,30.45
2019-05-03T03:06:06.706Z,23.30
2019-05-03T03:11:09.858Z,35.30
2019-05-03T03:16:16.300Z,27.05
2019-05-03T03:21:26.073Z,21.70
2019-05-03T03:26:37.210Z,29.30
2019-05-03T03:32:28.376Z,27.40
2019-05-03T03:37:29.713Z,34.50
2019-05-03T03:42:36.025Z,18.90
2019-05-03T03:47:39.716Z,27.47
2019-05-03T03:52:45.366Z,33.55
2019-05-03T03:57:49.220Z,21.75
2019-05-03T04:02:55.279Z,35.80
2019-05-03T04:07:59.604Z,24.50
2019-05-03T04:13:05.785Z,34.80
2019-05-03T04:18:32.893Z,32.65
2019-05-03T04:23:37.045Z,26.23
2019-05-03T04:28:41.623Z,32.05
2019-05-03T04:33:45.229Z,31.73
2019-05-03T04:38:49.178Z,26.62
2019-05-03T04:43:55.246Z,23.45
2019-05-03T04:48:58.653Z,23.55
2019-05-03T04:54:20.390Z,18.92
2019-05-03T04:59:25.454Z,25.08
2019-05-03T05:04:31.396Z,23.40
2019-05-03T05:09:37.025Z,17.60
2019-05-03T05:14:41.895Z,23.73
2019-05-03T05:20:10.732Z,21.80
2019-05-03T05:25:17.404Z,16.80
2019-05-03T05:30:21.856Z,11.30
2019-05-03T05:35:25.907Z,10.25
2019-05-03T05:40:30.456Z,10.58
2019-05-03T05:45:35.031Z,6.65
2019-05-03T05:50:41.254Z,12.78
2019-05-03T05:56:06.893Z,9.10
2019-05-03T06:01:21.471Z,8.45
2019-05-03T06:06:32.521Z,6.12
2019-05-03T06:11:41.073Z,8.23
2019-05-03T06:16:56.453Z,6.22
2019-05-03T06:22:11.012Z,7.03
2019-05-03T06:27:26.848Z,6.67
2019-05-03T06:32:34.673Z,5.40
2019-05-03T06:37:43.332Z,1.42
2019-05-03T06:42:54.456Z,3.58
2019-05-03T06:47:54.957Z,3.75
2019-05-03T06:52:59.811Z,3.83
2019-05-03T06:58:05.092Z,4.25
2019-05-03T07:03:30.723Z,3.02
2019-05-03T07:08:54.990Z,4.87
2019-05-03T07:14:00.023Z,4.22
2019-05-03T07:19:04.470Z,5.72
2019-05-03T07:24:08.170Z,9.68
2019-05-03T07:29:12.502Z,4.45
2019-05-03T07:34:15.984Z,3.35
2019-05-03T07:39:20.256Z,2.85
2019-05-03T07:44:25.458Z,26.23
2019-05-03T07:49:31.780Z,4.47
2019-05-03T07:54:35.494Z,5.25
2019-05-03T07:59:39.439Z,7.62
2019-05-03T08:04:44.477Z,1.50
2019-05-03T08:09:48.270Z,7.42
2019-05-03T08:14:54.991Z,7.08
2019-05-03T08:19:58.478Z,5.50
2019-05-03T08:25:05.328Z,7.03
2019-05-03T08:30:11.534Z,4.20
2019-05-03T08:35:35.572Z,4.33
2019-05-03T08:40:47.216Z,6.78
2019-05-03T08:45:51.461Z,3.35
2019-05-03T08:50:57.738Z,6.03
2019-05-03T08:56:01.437Z,4.03
2019-05-03T09:01:05.772Z,4.30
2019-05-03T09:06:09.597Z,2.35
2019-05-03T09:11:15.545Z,5.33
2019-05-03T09:16:19.556Z,1.80
2019-05-03T09:21:25.500Z,3.90
2019-05-03T09:26:31.801Z,5.55
2019-05-03T09:31:35.360Z,4.12
2019-05-03T09:36:39.521Z,2.50
2019-05-03T09:41:45.057Z,4.45
2019-05-03T09:46:48.585Z,5.58
2019-05-03T09:51:54.794Z,3.50
2019-05-03T09:56:59.558Z,3.15
2019-05-03T10:02:04.951Z,7.87
2019-05-03T10:07:09.247Z,6.60
2019-05-03T10:12:18.329Z,3.37
2019-05-03T10:17:50.908Z,5.12
2019-05-03T10:22:58.524Z,5.22
2019-05-03T10:28:03.142Z,7.33
2019-05-03T10:33:15.546Z,3.00
2019-05-03T10:38:21.044Z,3.75
2019-05-03T10:43:26.331Z,4.10
2019-05-03T10:48:30.218Z,3.12
2019-05-03T10:53:38.796Z,5.87
2019-05-03T10:58:45.252Z,3.67
2019-05-03T11:03:49.662Z,5.85
2019-05-03T11:08:54.640Z,4.10
2019-05-03T11:13:58.033Z,3.27
2019-05-03T11:19:01.962Z,5.30
2019-05-03T11:24:06.276Z,3.17
2019-05-03T11:29:10.015Z,2.92
2019-05-03T11:34:15.646Z,0.95
2019-05-03T11:39:20.287Z,0.97
2019-05-03T11:44:39.721Z,4.83
2019-05-03T11:49:45.196Z,4.83
2019-05-03T11:54:49.394Z,5.10
2019-05-03T11:59:54.778Z,6.35
2019-05-03T12:05:00.770Z,2.50
2019-05-03T12:10:15.021Z,3.12
2019-05-03T12:15:10.639Z,4.33
2019-05-03T12:20:17.922Z,1.60
2019-05-03T12:25:21.138Z,3.47
2019-05-03T12:30:27.675Z,2.98
2019-05-03T12:35:31.577Z,1.00
2019-05-03T12:40:35.217Z,4.35
2019-05-03T12:45:39.885Z,1.98
2019-05-03T12:50:46.399Z,2.40
2019-05-03T12:55:49.643Z,4.70
2019-05-03T13:01:05.537Z,4.47
2019-05-03T13:06:09.181Z,4.37
2019-05-03T13:11:12.590Z,3.20
2019-05-03T13:16:19.256Z,2.05
2019-05-03T13:21:23.324Z,4.20
2019-05-03T13:31:34.548Z,2.20
2019-05-03T13:36:38.067Z,0.68
2019-05-03T13:41:41.966Z,8.08
2019-05-03T13:46:46.822Z,6.45
2019-05-03T13:51:50.593Z,4.83
2019-05-03T13:56:55.753Z,2.42
2019-05-03T14:02:11.513Z,4.25
2019-05-03T14:07:05.941Z,8.63
2019-05-03T14:12:09.827Z,1.95
2019-05-03T14:17:14.546Z,3.75
2019-05-03T14:22:19.392Z,8.83
2019-05-03T14:27:25.425Z,4.70
2019-05-03T14:32:29.724Z,0.40
2019-05-03T14:37:34.987Z,6.80
2019-05-03T14:42:38.435Z,4.90
2019-05-03T14:47:42.219Z,5.35
2019-05-03T14:52:45.691Z,5.28
2019-05-03T14:58:07.686Z,6.75
2019-05-03T15:03:15.084Z,4.00
2019-05-03T15:08:19.761Z,3.75
2019-05-03T15:13:25.113Z,2.65
2019-05-03T15:18:29.624Z,3.15
2019-05-03T15:23:34.671Z,3.95
2019-05-03T15:28:38.917Z,2.87
2019-05-03T15:33:44.778Z,5.70
2019-05-03T15:38:47.817Z,6.67
2019-05-03T15:44:05.338Z,3.58
2019-05-03T15:49:09.115Z,5.15
2019-05-03T15:54:12.625Z,8.28
2019-05-03T15:59:16.326Z,5.65
2019-05-03T16:04:20.742Z,3.00
2019-05-03T16:09:24.624Z,3.67
2019-05-03T16:14:28.562Z,5.62
2019-05-03T16:19:32.012Z,6.75
2019-05-03T16:24:35.987Z,7.83
2019-05-03T16:29:40.817Z,4.25
2019-05-03T16:34:44.591Z,5.97
2019-05-03T16:39:48.211Z,6.30
2019-05-03T16:44:51.643Z,4.28
2019-05-03T16:49:56.678Z,8.68
2019-05-03T17:00:05.682Z,5.90
2019-05-03T17:05:25.931Z,3.35
2019-05-03T17:10:36.577Z,8.78
2019-05-03T17:15:40.738Z,6.08
2019-05-03T17:20:45.292Z,7.03
2019-05-03T17:25:49.207Z,11.63
2019-05-03T17:30:55.189Z,8.28
2019-05-03T17:35:59.405Z,3.52
2019-05-03T17:41:21.584Z,8.60
2019-05-03T17:46:25.529Z,5.10
2019-05-03T17:51:47.595Z,3.92
2019-05-03T17:57:00.129Z,10.23
2019-05-03T18:02:23.241Z,8.30
2019-05-03T18:08:04.325Z,14.43
2019-05-03T18:13:08.281Z,17.92
2019-05-03T18:18:12.277Z,10.03
2019-05-03T18:23:17.053Z,15.13
2019-05-03T18:28:20.672Z,19.57
2019-05-03T18:33:24.703Z,22.15
2019-05-03T18:38:30.107Z,17.67
2019-05-03T18:43:42.033Z,23.20
2019-05-03T18:48:46.130Z,24.77
2019-05-03T18:53:51.009Z,26.73
2019-05-03T18:58:55.674Z,15.75
2019-05-03T19:04:07.226Z,25.40
2019-05-03T19:09:28.804Z,19.20
2019-05-03T19:14:32.814Z,18.23
2019-05-03T19:19:39.050Z,23.67
2019-05-03T19:24:44.487Z,22.13
2019-05-03T19:29:48.388Z,18.20
2019-05-03T19:34:52.084Z,18.95
2019-05-03T19:39:55.642Z,15.32
2019-05-03T19:44:59.232Z,14.25
2019-05-03T19:50:05.049Z,14.65
2019-05-03T19:55:08.635Z,14.65
2019-05-03T20:00:12.657Z,16.05
2019-05-03T20:05:41.672Z,15.05
2019-05-03T20:10:45.507Z,12.28
2019-05-03T20:15:49.206Z,23.07
2019-05-03T20:20:55.192Z,24.00
2019-05-03T20:25:59.053Z,26.82
2019-05-03T20:31:04.900Z,30.50
2019-05-03T20:36:08.944Z,26.57
2019-05-03T20:41:14.466Z,18.27
2019-05-03T20:46:25.493Z,26.15
2019-05-03T20:51:30.666Z,23.80
2019-05-03T20:56:34.268Z,21.70
2019-05-03T21:01:38.101Z,19.70
2019-05-03T21:06:41.915Z,20.62
2019-05-03T21:11:45.393Z,17.23
2019-05-03T21:17:00.802Z,15.18
2019-05-03T21:22:11.393Z,20.00
2019-05-03T21:27:15.531Z,13.03
2019-05-03T21:32:19.169Z,14.80
2019-05-03T21:37:24.439Z,11.68
2019-05-03T21:42:29.080Z,12.60
2019-05-03T21:47:44.610Z,16.25
2019-05-03T21:52:48.207Z,16.30
2019-05-03T21:57:52.088Z,15.05
2019-05-03T22:02:56.734Z,15.30
2019-05-03T22:08:00.299Z,15.88
2019-05-03T22:13:04.874Z,14.93
2019-05-03T22:18:24.748Z,21.77
2019-05-03T22:23:47.005Z,18.17
2019-05-03T22:28:50.668Z,21.17
2019-05-03T22:33:55.157Z,16.32
2019-05-03T22:38:59.490Z,14.73
2019-05-03T22:44:02.829Z,20.80
2019-05-03T22:49:08.689Z,21.05
2019-05-03T22:54:15.337Z,16.57
2019-05-03T22:59:19.102Z,20.97
2019-05-03T23:04:25.274Z,17.50
2019-05-03T23:09:29.102Z,17.93
2019-05-03T23:14:34.585Z,18.37
2019-05-03T23:19:40.861Z,18.07
2019-05-03T23:24:44.444Z,15.32
2019-05-03T23:29:48.015Z,16.62
2019-05-03T23:34:51.400Z,16.77
2019-05-03T23:39:55.223Z,17.07
2019-05-03T23:45:02.307Z,19.07
2019-05-03T23:50:08.205Z,18.02
2019-05-03T23:55:39.350Z,18.37
